NCAR-RAP Real-Time Weather Data

Output produced by METARs form (20 February 2019  18:41 UTC)
found at http://weather.rap.ucar.edu/surface/
 
RJCC 201830Z 16007KT 5000 -SHSN BR FEW003 BKN004 BKN010 M00/M01 Q1014 RMK 2ST003 5ST004 6ST010 A2996
RJCC 201800Z 15006KT 3500 -SHSN BR FEW003 BKN006 BKN008 M00/M01 Q1014 RMK 1ST003 5ST006 6ST008 A2996
RJCC 201730Z 15005KT 2500 -SHSN BR FEW003 SCT006 BKN008 00/M01 Q1014 RMK 1ST003 3ST006 5ST008 A2996
RJCC 201700Z 15007KT 3000 -SHSN BR FEW003 SCT015 BKN025 00/M01 Q1014 RMK 1ST003 4ST015 7CU025 A2996
RJCC 201630Z 16004KT 2500 -SHSN BR FEW003 BKN004 BKN005 00/M01 Q1014 RMK 1ST003 5ST004 7ST005 A2996
RJCC 201600Z 15004KT 2000 -SHSN BR FEW002 SCT003 BKN004 00/M01 Q1014 RMK 1ST002 3ST003 7ST004 A2995
RJCC 201530Z 13004KT 1500 R01L/1400VP2000U R01R/P2000N -SHSN BR FEW002 BKN003 BKN004 00/M01 Q1014
RJCC 201500Z 00000KT 1500 R01L/1500N R01R/1900N -SHSN BR FEW003 SCT004 BKN005 00/M01 Q1014
RJCC 201430Z 15001KT 1800 -SHSN BR FEW002 SCT003 BKN004 00/M01 Q1014 RMK 1ST002 3ST003 7ST004 A2994
RJCC 201400Z 15004KT 3000 -SHSN BR FEW002 SCT003 BKN004 01/M00 Q1014 RMK 1ST002 3ST003 7ST004 A2994
RJCC 201330Z 17005KT 3100 BR FEW002 BKN003 BKN004 01/M00 Q1014 RMK 1ST002 5ST003 6ST004 A2995
RJCC 201300Z 16006KT 3500 BR FEW002 SCT003 BKN004 01/M00 Q1014 RMK 1ST002 3ST003 6ST004 A2994
RJCC 201241Z 17005KT 3500 BR FEW002 BKN004 BKN020 01/M00 Q1014 RMK 1ST002 5ST004 7CU020 A2994
RJCC 201230Z 16005KT 3500 BR FEW002 SCT003 BKN020 01/M00 Q1013 RMK 1ST002 3ST003 5CU020 A2994
RJCC 201200Z 17005KT 4000 BR FEW003 SCT015 BKN025 01/M00 Q1014 RMK 2ST003 4ST015 7CU025 A2995
RJCC 201130Z 17006KT 8000 FEW002 SCT015 BKN035 01/M01 Q1013 RMK 1ST002 3ST015 7CU035 A2994
RJCC 201100Z VRB02KT 9999 FEW015 BKN035 BKN100 01/M02 Q1013 RMK 1ST015 5CU035 7AC100 A2993
RJCC 201030Z 07003KT 020V090 9999 FEW015 BKN035 BKN050 01/M02 Q1013 RMK 1ST015 5CU035 7CU050 A2992
RJCC 201000Z 02005KT 9999 FEW015 BKN035 02/M02 Q1013 RMK 1ST015 7CU035 A2993
RJCC 200930Z 02005KT 350V070 9999 FEW015 BKN035 02/M01 Q1013 RMK 1ST015 7CU035 A2993
RJCC 200900Z 34006KT 9999 FEW015 BKN035 BKN050 02/M01 Q1013 RMK 1ST015 5CU035 7CU050 A2992
RJCC 200830Z 35006KT 9999 FEW015 BKN035 02/M01 Q1013 RMK 1ST015 7CU035 A2992
RJCC 200800Z 34006KT 9999 FEW020 BKN040 02/M01 Q1013 RMK 1CU020 7CU040 A2991
RJCC 200730Z 35009KT 310V030 9999 FEW020 BKN040 02/M01 Q1012 RMK 1CU020 7CU040 A2990
RJCC 200700Z 34008KT 9999 FEW020 BKN040 03/M01 Q1012 RMK 1CU020 7CU040 A2990
RJCC 200630Z 34008KT 9999 FEW020 BKN040 BKN050 03/M01 Q1012 RMK 1CU020 5CU040 7CU050 A2990
RJCC 200600Z 35009KT 9999 FEW020 SCT040 BKN050 03/M01 Q1012 RMK 1CU020 4CU040 6CU050 A2990
RJCC 200530Z 35010KT 9999 FEW015 SCT020 BKN045 03/M01 Q1012 RMK 1ST015 3CU020 5CU045 A2990
RJCC 200500Z 35009KT 9999 FEW006 SCT015 BKN018 03/M01 Q1012 RMK 1ST006 3ST015 6CU018 A2990
RJCC 200430Z 36010KT 9999 FEW008 SCT012 BKN018 03/M01 Q1012 RMK 1ST008 4ST012 5CU018 A2990
RJCC 200400Z 34010KT 9999 FEW007 SCT012 03/M01 Q1012 RMK 1ST007 4ST012 A2990
RJCC 200330Z 36008KT 9999 FEW004 SCT005 BKN012 03/00 Q1012 RMK 1ST004 3ST005 6ST012 A2991
RJCC 200323Z 36009KT 9999 FEW004 SCT005 BKN007 02/00 Q1013 RMK 1ST004 4ST005 5ST007 A2991
RJCC 200300Z 36009KT 8000 FEW002 BKN005 BKN007 02/00 Q1013 RMK 1ST002 5ST005 7ST007 A2992
RJCC 200249Z 36008KT 8000 FEW003 BKN005 BKN007 02/00 Q1013 RMK 1ST003 5ST005 7ST007 A2993
RJCC 200230Z 35010KT 8000 FEW005 BKN007 BKN009 02/00 Q1013 RMK 1ST005 5ST007 7ST009 A2993
RJCC 200200Z 35010KT 8000 FEW005 BKN007 BKN009 02/M00 Q1014 RMK 2ST005 5ST007 7ST009 A2995
RJCC 200130Z 35009KT 8000 FEW005 BKN007 BKN010 02/M00 Q1014 RMK 1ST005 5ST007 7ST010 A2994
RJCC 200113Z 35010KT 7000 FEW005 BKN007 BKN010 02/M00 Q1013 RMK 1ST005 5ST007 7ST010 A2994
RJCC 200100Z 34009KT 7000 FEW004 SCT006 BKN010 02/M00 Q1013 RMK 1ST004 4ST006 7ST010 A2994
RJCC 200046Z 35010KT 7000 FEW004 SCT006 BKN010 02/M00 Q1013 RMK 1ST004 3ST006 6ST010 A2993
RJCC 200030Z 35008KT 5000 BR FEW002 SCT004 BKN006 02/M00 Q1013 RMK 1ST002 3ST004 6ST006 A2993
RJCC 200000Z 35006KT 5000 BR FEW001 SCT003 BKN005 01/00 Q1013 RMK 2ST001 4ST003 6ST005 A2993
RJCC 192330Z 33006KT 5000 -SHSN BR FEW001 SCT003 BKN005 01/00 Q1013 RMK 2ST001 4ST003 6ST005 A2993
RJCC 192300Z 34005KT 3500 -SHSN BR FEW001 SCT003 BKN005 00/M00 Q1013 RMK 1ST001 4ST003 6ST005 A2994
RJCC 192236Z 33005KT 2500 R01L/P2000N R01R/1900U -SHSN BR FEW001 BKN003 BKN025 00/M00 Q1013 RMK 2ST001 5ST003 6CU025 A2994
RJCC 192230Z 33004KT 2000 R01L/2000N R01R/1900N -SHSN BR SCT001 BKN003 00/M00 Q1013
RJCC 192216Z 34004KT 1600 R01L/1700U R01R/1700N -SHSN BR SCT001 BKN002 00/M01 Q1013 RMK 3ST001 6ST002 A2993
RJCC 192200Z 35004KT 1400 R01L/1500N R01R/1600N -SHSN BR SCT001 BKN002 00/M01 Q1013
RJCC 192130Z 35005KT 1100 R01L/0900V1600U R01R/1000VP2000U -SHSN BR SCT001 BKN002 M00/M01 Q1013 RMK 3ST001 6ST002 A2992
RJCC 192100Z 34004KT 1200 R19R/1300N R19L/1300U -SHSN BR SCT001 BKN002 M00/M01 Q1013
RJCC 192047Z 33004KT 1200 R19R/1200N R19L/1200N -SHSN BR SCT001 BKN002 M00/M01 Q1013 RMK 3ST001 6ST002 A2992
RJCC 192030Z 34005KT 1600 R19R/1200V1800D R19L/1200V1700D -SHSN BR FEW002 BKN005 BKN010 M00/M01 Q1012 RMK 1ST002 5ST005 7ST010 A2991
RJCC 192000Z 35005KT 1600 R19R/2000N R19L/P2000N -SHSN BR FEW002 SCT005 BKN010 M00/M01 Q1012
RJCC 191941Z 34004KT 1600 R19R/2000N R19L/P2000N -SHSN BR FEW002 BKN005 BKN010 M00/M01 Q1012 RMK 1ST002 5ST005 7ST010 A2990
RJCC 191930Z 33004KT 1500 R19R/P2000N R19L/P2000N -SHSN BR FEW001 BKN002 BKN010 M00/M01 Q1012
RJCC 191922Z 31005KT 1400 R19R/P2000N R19L/P2000N -SHSN BR FEW001 BKN002 BKN003 00/M01 Q1012 RMK 1ST001 5ST002 7ST003 A2990
RJCC 191912Z 31005KT 0900 R19R/2000N R19L/0800VP2000U -SHSN FZFG VV002 M00/M01 Q1012 RMK A2990
RJCC 191900Z 32004KT 0900 R19R/0800V1800U R19L/0600V0900D -SHSN FZFG VV003 M00/M01 Q1012 RMK A2989
RJCC 191850Z 32005KT 0900 R19R/0800V1700D R19L/0750V1700D -SHSN FZFG VV004 M00/M01 Q1012 RMK A2989
RJCC 191830Z 32003KT 1500 R19R/1800U R19L/1800D -SHSN FEW003 SCT006 BKN010 M00/M01 Q1012
RJCC 191800Z 35004KT 1200 R19R/2000N R19L/P2000N -SHSN FEW003 SCT006 BKN010 M00/M01 Q1012
RJCC 191730Z 01003KT 1200 R19R/P2000N R19L/P2000N -SHSN FEW003 SCT006 BKN010 00/M01 Q1012
RJCC 191700Z 02003KT 1200 R19R/1800U R19L/P2000N -SHSN FEW006 BKN012 BKN020 00/M01 Q1013
RJCC 191644Z 35003KT 0900 R19R/1900N R19L/P2000N SHSN VV006 00/M01 Q1013 RMK A2993
RJCC 191630Z 35002KT 1500 R19R/P2000N R19L/P2000N -SHSN FEW008 SCT010 BKN015 00/M01 Q1013
RJCC 191600Z 00000KT 4000 -SHSN FEW010 SCT015 BKN025 00/M01 Q1013 RMK 1ST010 4ST015 6CU025 A2993
RJCC 191530Z 34003KT 2500 -SHSN FEW010 SCT015 BKN025 00/M01 Q1014 RMK 1ST010 3ST015 6CU025 A2995
RJCC 191500Z 03003KT 9999 FEW020 BKN040 00/M02 Q1013 RMK 1SC020 7SC040 A2994
RJCC 191430Z 35003KT 9999 FEW030 BKN080 M00/M02 Q1013 RMK 1CU030 7AC080 A2993
RJCC 191400Z 32004KT 9999 FEW030 BKN120 00/M02 Q1013 RMK 1CU030 7AC120 A2994
RJCC 191330Z VRB01KT 9999 FEW030 BKN120 00/M02 Q1014 RMK 1CU030 7AC120 A2995
RJCC 191300Z VRB02KT 9999 FEW030 BKN120 00/M02 Q1014 RMK 1CU030 7AC120 A2996
RJCC 191230Z 23003KT 9999 FEW030 BKN120 BKN160 00/M02 Q1015 RMK 1CU030 5AC120 7AC160 A2997
RJCC 191200Z 23003KT 9999 FEW030 BKN120 00/M02 Q1015 RMK 1CU030 5AC120 A2999
RJCC 191130Z 18002KT 9999 FEW030 BKN120 01/M01 Q1016 RMK 1CU030 7AC120 A3000
RJCC 191100Z 13002KT 9999 FEW030 SCT050 BKN080 01/M02 Q1016 RMK 1CU030 4CU050 6AC080 A3001
RJCC 191030Z 15003KT 110V180 9999 FEW030 SCT050 BKN080 01/M02 Q1017 RMK 1CU030 3CU050 6AC080 A3003
RJCC 191000Z 16006KT 9999 FEW030 SCT050 BKN080 01/M02 Q1017 RMK 1CU030 3CU050 7AC080 A3005
RJCC 190930Z 15005KT 9999 FEW030 BKN100 02/M02 Q1018 RMK 1CU030 7AC100 A3006
RJCC 190900Z 16004KT 9999 FEW030 BKN110 02/M02 Q1018 RMK 1CU030 7AC110 A3007
RJCC 190830Z 17006KT 9999 FEW030 BKN110 02/M02 Q1018 RMK 1CU030 7AC110 A3008
RJCC 190800Z 17006KT 9999 FEW030 BKN110 02/M03 Q1018 RMK 1CU030 7AC110 A3007
RJCC 190730Z 16007KT 9999 FEW030 BKN110 BKN/// 03/M03 Q1018
RJCC 190700Z 17009KT 9999 FEW030 BKN120 BKN/// 03/M04 Q1018
RJCC 190630Z 18010KT 9999 FEW025 BKN120 BKN/// 04/M06 Q1018
RJCC 190600Z 17011KT 9999 FEW025 SCT110 BKN/// 03/M04 Q1019
RJCC 190530Z 16010KT 9999 FEW025 BKN110 BKN/// 03/M05 Q1019
RJCC 190500Z 15011KT 9999 FEW025 BKN120 BKN/// 04/M05 Q1019
RJCC 190430Z 17010KT 9999 FEW025 BKN130 BKN/// 03/M05 Q1020
RJCC 190400Z 15009KT 9999 FEW025 BKN140 BKN/// 03/M05 Q1020
RJCC 190330Z 15010KT 9999 FEW025 SCT140 BKN/// 03/M05 Q1020
RJCC 190300Z 13008KT 110V170 9999 FEW025 BKN150 BKN/// 03/M05 Q1021
RJCC 190230Z 14009KT 9999 FEW025 BKN140 BKN/// 03/M04 Q1022 RMK 1CU025 5AC140 A3018
RJCC 190200Z 14007KT 9999 FEW025 BKN140 02/M05 Q1022 RMK 1CU025 7AC140 A3020
RJCC 190130Z 16010KT 9999 FEW025 BKN150 01/M06 Q1023 RMK 1CU025 7AC150 A3022
RJCC 190100Z 16010KT 9999 FEW025 BKN140 01/M06 Q1023 RMK 1CU025 7AC140 A3022
RJCC 190030Z 16010KT 9999 FEW025 BKN150 BKN/// 00/M07 Q1023
RJCC 190000Z 15008KT 9999 FEW025 SCT180 BKN/// M01/M07 Q1023
RJCC 182330Z 14009KT 9999 FEW025 BKN180 BKN/// M03/M09 Q1023
RJCC 182300Z 16009KT 9999 FEW020 SCT180 BKN/// M03/M09 Q1023
RJCC 182230Z 17011KT 9999 FEW020 BKN/// M05/M10 Q1023
RJCC 182200Z 18012KT 9999 FEW030 BKN/// M04/M10 Q1023
RJCC 182130Z 18007KT 9999 FEW030 BKN/// M06/M10 Q1023
RJCC 182100Z 18006KT 9999 FEW030 BKN/// M06/M11 Q1023
RJCC 182030Z 17007KT 9999 FEW030 BKN/// M08/M12 Q1023
RJCC 182000Z 17008KT 9999 FEW030 BKN/// M08/M12 Q1023 RMK 1CU030 A3023
RJCC 181930Z 17007KT 9999 FEW030 BKN/// M07/M11 Q1023 RMK 1CU030 A3023
RJCC 181900Z 17008KT 9999 FEW030 SCT/// M08/M11 Q1023
RJCC 181830Z 16007KT 9999 FEW030 SCT/// M07/M11 Q1023
RJCC 181800Z 15003KT 9999 FEW030 SCT/// M07/M11 Q1023
RJCC 181730Z 15005KT 9999 FEW030 M09/M11 Q1023 RMK 1CU030 A3023
RJCC 181700Z 19005KT 9999 FEW030 M11/M13 Q1024 RMK 1CU030 A3024
RJCC 181630Z 17004KT 9999 FEW030 M10/M12 Q1024 RMK 1CU030 A3025
RJCC 181600Z 18004KT 9999 FEW030 M11/M13 Q1024 RMK 1CU030 A3024
RJCC 181530Z 18003KT 9999 FEW030 M09/M11 Q1024 RMK 1CU030 A3024
RJCC 181500Z 19003KT 9999 FEW030 M09/M12 Q1024 RMK 1CU030 A3025
RJCC 181430Z 16003KT 9999 FEW030 M08/M10 Q1024 RMK 1CU030 A3025
RJCC 181400Z 13003KT 9999 FEW030 M09/M11 Q1024 RMK 1CU030 A3025
RJCC 181330Z 16003KT 9999 FEW030 M08/M11 Q1024 RMK 1CU030 A3025
RJCC 181300Z 16004KT 9999 FEW030 M07/M10 Q1024 RMK 1CU030 A3024
RJCC 181230Z 13003KT 100V170 9999 FEW030 M07/M10 Q1023 RMK 1CU030 A3023
RJCC 181200Z 15003KT 9999 FEW030 M08/M11 Q1023 RMK 1CU030 A3023
RJCC 181130Z 13002KT 9999 FEW030 M06/M10 Q1023 RMK 1CU030 A3022
RJCC 181100Z 16003KT 9999 FEW030 M05/M09 Q1023 RMK 1CU030 A3021
RJCC 181030Z VRB03KT 9999 FEW030 M02/M09 Q1022 RMK 1CU030 A3021
RJCC 181000Z 02003KT 360V140 9999 FEW030 M04/M09 Q1022 RMK 1CU030 A3020
RJCC 180930Z 02002KT 9999 FEW030 M02/M10 Q1022 RMK 1CU030 A3019
RJCC 180900Z 00000KT 9999 FEW030 M02/M10 Q1022 RMK 1CU030 A3018
RJCC 180830Z 01003KT 9999 FEW030 M01/M10 Q1021 RMK 1CU030 A3017
RJCC 180800Z 02006KT 9999 FEW030 M01/M09 Q1021 RMK 1CU030 A3016
RJCC 180730Z 36008KT 9999 FEW030 M00/M08 Q1021 RMK 1CU030 A3016
RJCC 180700Z 36011KT 9999 FEW030 00/M09 Q1021 RMK 1CU030 A3015